Time;durP1;ratioP1;P1;durP2;ratioP2;P2;SDS_P1;SDS_P2;PMS_P1;PMS_P2;Temp;Humidity;BMP_temperature;BMP_pressure;BME280_temperature;BME280_humidity;BME280_pressure;Samples;Min_cycle;Max_cycle;Signal;HPM_P1;HPM_P2
2022/05/12 00:01:29;;;;;;;2.90;2.60;;;18.90;99.90;;;;;;4961250;28;20726;-75
2022/05/12 00:03:56;;;;;;;3.08;2.60;;;18.90;99.90;;;;;;4970061;28;20295;-75
2022/05/12 00:06:25;;;;;;;2.90;2.70;;;18.90;99.90;;;;;;4964732;28;20198;-75
2022/05/12 00:08:52;;;;;;;3.13;2.83;;;18.80;99.90;;;;;;4966646;28;20802;-75
2022/05/12 00:11:19;;;;;;;3.42;3.13;;;18.80;99.90;;;;;;4965072;28;20218;-76
2022/05/12 00:13:46;;;;;;;2.88;2.67;;;18.80;99.90;;;;;;4970528;28;20238;-74
2022/05/12 00:16:13;;;;;;;4.35;3.15;;;18.70;99.90;;;;;;4968255;28;20974;-74
2022/05/12 00:18:40;;;;;;;3.08;2.80;;;18.80;99.90;;;;;;4967308;28;20651;-77
2022/05/12 00:21:07;;;;;;;3.42;2.90;;;18.70;99.90;;;;;;4964143;28;20225;-75
2022/05/12 00:23:35;;;;;;;3.10;2.83;;;18.70;99.90;;;;;;4973273;28;20308;-75
2022/05/12 00:26:02;;;;;;;2.95;2.65;;;18.70;99.90;;;;;;4964477;28;20197;-76
2022/05/12 00:28:29;;;;;;;3.17;2.85;;;18.60;99.90;;;;;;4971114;28;20272;-76
2022/05/12 00:30:58;;;;;;;2.90;2.70;;;18.60;99.90;;;;;;4980947;28;20229;-76
2022/05/12 00:33:27;;;;;;;3.33;3.03;;;18.60;99.90;;;;;;4965477;28;20252;-76
2022/05/12 00:35:55;;;;;;;3.50;2.60;;;18.60;99.90;;;;;;4967614;28;20296;-75
2022/05/12 00:38:22;;;;;;;2.90;2.70;;;18.50;99.90;;;;;;4972702;28;20296;-76
2022/05/12 00:40:51;;;;;;;2.88;2.67;;;18.50;99.90;;;;;;4997045;23;20275;-70
2022/05/12 00:43:38;;;;;;;3.17;2.95;;;18.50;99.90;;;;;;4990681;28;20213;-70
2022/05/12 00:46:06;;;;;;;3.17;2.88;;;18.40;99.90;;;;;;4986449;28;20251;-71
2022/05/12 00:48:33;;;;;;;3.60;2.85;;;18.40;99.90;;;;;;4982469;28;20221;-70
2022/05/12 00:51:01;;;;;;;2.90;2.70;;;18.40;99.90;;;;;;4965837;28;20248;-70
2022/05/12 00:53:30;;;;;;;3.22;2.92;;;18.40;99.90;;;;;;4972578;28;20690;-71
2022/05/12 00:56:00;;;;;;;3.33;3.03;;;18.30;99.90;;;;;;4986220;28;20200;-71
2022/05/12 00:58:29;;;;;;;3.00;2.80;;;18.30;99.90;;;;;;4986260;28;20239;-71
2022/05/12 01:00:56;;;;;;;3.17;2.88;;;18.30;99.90;;;;;;4985363;28;20594;-71
2022/05/12 01:03:26;;;;;;;3.15;2.60;;;18.20;99.90;;;;;;4984863;28;20216;-70
2022/05/12 01:05:54;;;;;;;3.00;2.80;;;18.20;99.90;;;;;;4986722;28;20666;-70
2022/05/12 01:08:23;;;;;;;2.80;2.60;;;18.10;99.90;;;;;;4984604;28;20208;-70
2022/05/12 01:10:53;;;;;;;2.72;2.53;;;18.00;99.90;;;;;;4985419;28;20224;-71
2022/05/12 01:13:22;;;;;;;2.72;2.53;;;18.00;99.90;;;;;;4984683;28;20201;-70
2022/05/12 01:15:51;;;;;;;3.05;2.85;;;17.90;99.90;;;;;;4985436;28;20691;-70
2022/05/12 01:18:18;;;;;;;3.05;2.85;;;17.90;99.90;;;;;;4990577;28;20732;-71
2022/05/12 01:20:46;;;;;;;3.13;2.92;;;17.90;99.90;;;;;;4988086;28;20567;-71
2022/05/12 01:23:22;;;;;;;3.50;3.05;;;18.00;99.90;;;;;;4983852;28;20786;-70
2022/05/12 01:25:49;;;;;;;3.03;2.83;;;18.00;99.90;;;;;;4985259;28;20617;-70
2022/05/12 01:28:16;;;;;;;3.83;3.08;;;18.00;99.90;;;;;;4985892;28;20201;-70
2022/05/12 01:30:43;;;;;;;3.28;3.08;;;18.00;99.90;;;;;;4984345;28;20291;-70
2022/05/12 01:33:11;;;;;;;3.15;2.95;;;18.00;99.90;;;;;;4985928;28;20630;-70
2022/05/12 01:35:38;;;;;;;3.47;3.17;;;17.90;99.90;;;;;;4983961;28;20223;-70
2022/05/12 01:38:05;;;;;;;3.22;2.97;;;17.90;99.90;;;;;;4986742;28;20268;-70
2022/05/12 01:40:34;;;;;;;3.35;3.05;;;17.90;99.90;;;;;;4982839;28;20464;-70
2022/05/12 01:43:01;;;;;;;3.00;2.80;;;17.90;99.90;;;;;;4984547;28;20220;-71
2022/05/12 01:45:28;;;;;;;3.15;2.80;;;17.90;99.90;;;;;;4984197;28;20216;-70
2022/05/12 01:47:55;;;;;;;3.70;3.20;;;17.90;99.90;;;;;;4985649;28;20197;-70
2022/05/12 01:50:23;;;;;;;3.60;3.20;;;17.90;99.90;;;;;;4984102;28;20640;-70
2022/05/12 01:52:50;;;;;;;3.33;3.03;;;17.90;99.90;;;;;;4988695;28;20219;-70
2022/05/12 01:55:20;;;;;;;3.30;3.10;;;17.80;99.90;;;;;;4986778;28;21786;-69
2022/05/12 01:57:49;;;;;;;4.85;3.13;;;17.80;99.90;;;;;;4986970;28;20201;-71
2022/05/12 02:00:19;;;;;;;3.45;3.10;;;17.80;99.90;;;;;;4983288;28;20280;-70
2022/05/12 02:02:47;;;;;;;3.65;3.35;;;17.80;99.90;;;;;;4990842;28;20271;-70
2022/05/12 02:05:14;;;;;;;3.33;3.05;;;17.80;99.90;;;;;;4987209;28;20216;-70
2022/05/12 02:07:46;;;;;;;3.53;3.22;;;17.80;99.90;;;;;;4984159;28;20238;-71
2022/05/12 02:10:15;;;;;;;3.90;3.50;;;17.70;99.90;;;;;;4988397;28;20598;-70
2022/05/12 02:12:42;;;;;;;3.47;3.28;;;17.70;99.90;;;;;;4986522;28;20192;-70
2022/05/12 02:15:12;;;;;;;4.32;3.60;;;17.70;99.90;;;;;;4986177;28;20613;-70
2022/05/12 02:17:39;;;;;;;3.53;3.15;;;17.70;99.90;;;;;;4988673;28;20284;-70
2022/05/12 02:20:07;;;;;;;3.53;3.22;;;17.70;99.90;;;;;;4988819;28;20691;-70
2022/05/12 02:22:34;;;;;;;3.20;2.90;;;17.60;99.90;;;;;;4988980;28;20212;-70
2022/05/12 02:25:01;;;;;;;3.22;3.03;;;17.60;99.90;;;;;;4986861;28;20221;-70
2022/05/12 02:27:28;;;;;;;3.90;3.60;;;17.60;99.90;;;;;;4990232;28;20201;-70
2022/05/12 02:29:55;;;;;;;4.03;3.35;;;17.60;99.90;;;;;;4987320;28;20224;-70
2022/05/12 02:32:27;;;;;;;3.80;3.50;;;17.50;99.90;;;;;;4990645;28;20279;-70
2022/05/12 02:34:54;;;;;;;3.40;3.08;;;17.50;99.90;;;;;;4988720;28;20216;-71
2022/05/12 02:37:21;;;;;;;3.33;3.13;;;17.40;99.90;;;;;;4989196;28;20205;-70
2022/05/12 02:39:48;;;;;;;3.00;2.80;;;17.40;99.90;;;;;;4987143;28;20270;-70
2022/05/12 02:42:15;;;;;;;3.38;3.10;;;17.40;99.90;;;;;;4985974;28;20208;-71
2022/05/12 02:44:42;;;;;;;3.38;3.15;;;17.30;99.90;;;;;;4989734;28;20647;-70
2022/05/12 02:47:09;;;;;;;5.35;3.15;;;17.30;99.90;;;;;;4982180;28;20585;-70
2022/05/12 02:49:38;;;;;;;5.60;3.53;;;17.30;99.90;;;;;;4991606;28;20225;-71
2022/05/12 02:52:06;;;;;;;3.60;3.30;;;17.30;99.90;;;;;;4988948;28;20201;-70
2022/05/12 02:54:34;;;;;;;3.45;3.25;;;17.20;99.90;;;;;;4989784;28;20372;-70
2022/05/12 02:57:01;;;;;;;4.68;3.30;;;17.20;99.90;;;;;;4985430;28;20201;-70
2022/05/12 02:59:28;;;;;;;3.47;3.28;;;17.20;99.90;;;;;;4987382;28;20225;-71
2022/05/12 03:01:55;;;;;;;3.25;2.97;;;17.20;99.90;;;;;;4987572;28;20258;-70
2022/05/12 03:04:22;;;;;;;4.15;3.30;;;17.20;99.90;;;;;;4984807;28;20235;-70
2022/05/12 03:06:51;;;;;;;4.57;3.28;;;17.20;99.90;;;;;;4990653;28;20197;-70
2022/05/12 03:09:18;;;;;;;3.47;3.22;;;17.20;99.90;;;;;;4982404;28;20241;-70
2022/05/12 03:11:45;;;;;;;4.05;3.75;;;17.20;99.90;;;;;;4987721;28;20196;-71
2022/05/12 03:14:12;;;;;;;3.95;3.63;;;17.20;99.90;;;;;;4983381;28;20225;-71
2022/05/12 03:16:39;;;;;;;3.80;3.50;;;17.10;99.90;;;;;;4989572;28;20212;-70
2022/05/12 03:19:06;;;;;;;3.95;3.65;;;17.10;99.90;;;;;;4983965;28;20224;-70
2022/05/12 03:21:33;;;;;;;4.32;3.92;;;17.10;99.90;;;;;;4988888;28;20204;-70
2022/05/12 03:24:01;;;;;;;4.18;3.88;;;17.00;99.90;;;;;;4985387;28;20272;-70
2022/05/12 03:26:28;;;;;;;4.07;3.67;;;17.00;99.90;;;;;;4986694;28;20228;-70
2022/05/12 03:28:55;;;;;;;4.30;3.60;;;17.00;99.90;;;;;;4983211;28;20206;-70
2022/05/12 03:31:23;;;;;;;3.90;3.50;;;17.00;99.90;;;;;;4983700;28;20281;-70
2022/05/12 03:33:50;;;;;;;3.95;3.35;;;17.00;99.90;;;;;;4986757;28;20246;-71
2022/05/12 03:36:19;;;;;;;3.38;3.17;;;17.00;99.90;;;;;;4987501;28;20189;-70
2022/05/12 03:38:46;;;;;;;3.83;3.53;;;17.00;99.90;;;;;;4988191;28;20344;-70
2022/05/12 03:41:14;;;;;;;3.58;3.28;;;17.00;99.90;;;;;;4984716;28;20236;-71
2022/05/12 03:46:33;;;;;;;4.20;3.90;;;17.00;99.90;;;;;;4940208;28;20235;-70
2022/05/12 03:49:00;;;;;;;3.63;3.33;;;17.00;99.90;;;;;;4966040;28;20269;-70
2022/05/12 03:51:28;;;;;;;3.92;3.63;;;16.90;99.90;;;;;;4965387;28;20230;-70
2022/05/12 03:53:55;;;;;;;3.67;3.38;;;16.90;99.90;;;;;;4970403;28;20652;-70
2022/05/12 03:56:23;;;;;;;4.78;3.58;;;16.90;99.90;;;;;;4985448;28;20227;-71
2022/05/12 03:58:50;;;;;;;3.83;3.53;;;16.90;99.90;;;;;;4984879;28;20544;-70
2022/05/12 04:01:17;;;;;;;3.47;3.17;;;16.90;99.90;;;;;;4984964;28;20232;-70
2022/05/12 04:03:45;;;;;;;3.92;3.63;;;16.90;99.90;;;;;;4990916;28;20227;-70
2022/05/12 04:06:12;;;;;;;4.82;3.55;;;16.90;99.90;;;;;;4982678;28;20225;-71
2022/05/12 04:08:39;;;;;;;3.67;3.38;;;16.90;99.90;;;;;;4985385;28;20205;-70
2022/05/12 04:11:08;;;;;;;4.18;3.78;;;16.90;99.90;;;;;;4983330;28;20264;-70
2022/05/12 04:13:36;;;;;;;3.67;3.38;;;16.90;99.90;;;;;;4990004;28;20635;-70
2022/05/12 04:16:04;;;;;;;3.45;3.15;;;16.90;99.90;;;;;;4986454;28;20212;-71
2022/05/12 04:18:31;;;;;;;3.70;3.40;;;16.90;99.90;;;;;;4986747;28;20201;-71
2022/05/12 04:20:58;;;;;;;3.45;3.15;;;17.00;99.90;;;;;;4985642;28;20307;-71
2022/05/12 04:23:25;;;;;;;3.70;3.40;;;17.00;99.90;;;;;;4981109;28;20735;-71
2022/05/12 04:25:52;;;;;;;5.15;4.57;;;17.00;99.90;;;;;;4984667;28;20225;-71
2022/05/12 04:28:19;;;;;;;4.88;4.28;;;17.10;99.90;;;;;;4977763;28;20264;-71
2022/05/12 04:30:48;;;;;;;4.40;4.10;;;17.10;99.90;;;;;;4979507;28;20304;-71
2022/05/12 04:35:59;;;;;;;4.10;3.80;;;17.20;99.90;;;;;;4983648;28;20588;-71
2022/05/12 04:38:26;;;;;;;3.83;3.60;;;17.20;99.90;;;;;;4985754;28;20527;-71
2022/05/12 04:40:53;;;;;;;4.50;4.00;;;17.30;99.90;;;;;;4981651;28;20229;-71
2022/05/12 04:43:21;;;;;;;4.07;3.78;;;17.40;99.90;;;;;;4985641;28;20704;-71
2022/05/12 04:45:49;;;;;;;4.45;3.97;;;17.50;99.90;;;;;;4990009;28;20221;-71
2022/05/12 04:48:16;;;;;;;4.38;4.00;;;17.60;99.90;;;;;;4991384;28;20196;-71
2022/05/12 04:50:43;;;;;;;4.20;3.80;;;17.70;99.90;;;;;;4992067;28;20231;-71
2022/05/12 04:53:11;;;;;;;4.75;4.30;;;17.80;99.90;;;;;;4982509;28;21327;-71
2022/05/12 04:55:39;;;;;;;4.63;4.22;;;17.90;99.90;;;;;;4981643;28;20275;-71
2022/05/12 04:58:06;;;;;;;5.20;4.70;;;18.00;99.90;;;;;;4981444;28;20299;-71
2022/05/12 05:00:36;;;;;;;5.65;4.57;;;18.20;99.90;;;;;;4987280;28;20232;-71
2022/05/12 05:03:05;;;;;;;5.07;4.68;;;18.30;99.90;;;;;;4985416;28;20259;-71
2022/05/12 05:05:33;;;;;;;5.13;4.32;;;18.30;99.90;;;;;;4990608;28;20245;-71
2022/05/12 05:08:00;;;;;;;6.40;4.68;;;18.40;99.90;;;;;;4988599;28;20205;-71
2022/05/12 05:10:27;;;;;;;5.95;4.93;;;18.60;99.90;;;;;;4991584;28;20231;-71
2022/05/12 05:12:55;;;;;;;13.10;5.13;;;18.70;99.90;;;;;;4995163;28;20196;-71
2022/05/12 05:15:23;;;;;;;6.15;5.00;;;18.80;99.90;;;;;;4991088;28;20299;-71
2022/05/12 05:17:51;;;;;;;5.00;4.60;;;18.90;99.90;;;;;;4995427;28;20200;-71
2022/05/12 05:20:26;;;;;;;5.10;4.63;;;18.90;99.90;;;;;;4988215;28;20227;-71
2022/05/12 05:22:53;;;;;;;5.75;4.78;;;19.00;99.90;;;;;;4988609;28;20200;-71
2022/05/12 05:25:21;;;;;;;4.75;4.43;;;19.20;99.90;;;;;;4992795;28;20844;-72
2022/05/12 05:27:49;;;;;;;5.50;5.05;;;19.40;99.90;;;;;;4994240;28;20663;-71
2022/05/12 05:30:19;;;;;;;6.00;5.45;;;19.50;99.90;;;;;;4991730;28;20269;-71
2022/05/12 05:32:46;;;;;;;7.20;5.00;;;19.60;99.90;;;;;;4983901;28;20500;-71
2022/05/12 05:35:13;;;;;;;5.30;4.70;;;19.60;99.90;;;;;;4986608;28;20578;-72
2022/05/12 05:37:43;;;;;;;5.57;4.80;;;19.70;99.90;;;;;;4987022;28;20202;-71
2022/05/12 05:40:13;;;;;;;5.82;4.50;;;19.80;99.90;;;;;;4991101;28;20715;-72
2022/05/12 05:42:40;;;;;;;6.25;5.38;;;19.90;99.90;;;;;;4983096;28;20944;-71
2022/05/12 05:45:11;;;;;;;5.32;4.82;;;20.00;99.90;;;;;;4990200;28;20232;-72
2022/05/12 05:47:39;;;;;;;6.63;4.88;;;20.00;99.90;;;;;;4990125;28;20203;-72
2022/05/12 05:50:08;;;;;;;5.72;5.18;;;20.00;99.90;;;;;;4994074;28;20298;-72
2022/05/12 05:55:22;;;;;;;5.65;4.95;;;20.00;99.90;;;;;;4993597;28;20228;-72
2022/05/12 05:57:49;;;;;;;5.03;4.63;;;19.80;99.90;;;;;;4993225;28;20205;-72
2022/05/12 06:00:17;;;;;;;5.60;5.10;;;19.80;99.90;;;;;;4986665;28;20283;-72
2022/05/12 06:02:44;;;;;;;5.32;4.88;;;19.70;99.90;;;;;;4997643;28;20223;-71
2022/05/12 06:05:12;;;;;;;5.55;5.05;;;19.80;99.90;;;;;;4997683;28;20316;-71
2022/05/12 06:07:40;;;;;;;5.72;5.13;;;19.80;99.90;;;;;;4991317;28;20192;-72
2022/05/12 06:10:08;;;;;;;5.70;5.20;;;20.00;99.90;;;;;;4986877;28;20667;-71
2022/05/12 06:12:37;;;;;;;7.32;5.20;;;20.20;99.90;;;;;;4996744;28;20201;-72
2022/05/12 06:15:05;;;;;;;5.85;5.25;;;20.40;99.90;;;;;;4982047;28;20224;-72
2022/05/12 06:17:32;;;;;;;6.28;5.68;;;20.50;99.90;;;;;;4986278;28;20275;-72
2022/05/12 06:19:59;;;;;;;5.15;4.75;;;20.50;99.90;;;;;;4986829;28;20588;-71
2022/05/12 06:22:26;;;;;;;6.05;5.40;;;20.60;99.90;;;;;;4992893;28;20204;-72
2022/05/12 06:24:54;;;;;;;7.43;5.43;;;20.80;99.90;;;;;;4985522;28;20217;-71
2022/05/12 06:27:22;;;;;;;5.97;5.40;;;20.90;99.90;;;;;;4987153;28;20200;-72
2022/05/12 06:29:51;;;;;;;5.82;5.20;;;20.90;99.90;;;;;;4985876;28;20217;-72
2022/05/12 06:32:19;;;;;;;6.38;5.47;;;21.00;99.90;;;;;;4985539;28;20201;-72
2022/05/12 06:34:46;;;;;;;6.03;5.43;;;21.10;99.90;;;;;;4980620;28;20197;-72
2022/05/12 06:37:14;;;;;;;6.30;5.72;;;21.00;99.90;;;;;;4983761;28;20427;-72
2022/05/12 06:39:41;;;;;;;9.73;5.30;;;20.70;99.90;;;;;;4977932;28;20730;-73
2022/05/12 06:42:08;;;;;;;7.05;4.93;;;20.50;99.90;;;;;;5014556;23;20231;-76
2022/05/12 06:44:36;;;;;;;5.93;5.38;;;20.40;99.90;;;;;;4998650;28;20312;-76
2022/05/12 06:47:08;;;;;;;5.80;5.40;;;20.20;99.90;;;;;;5000221;28;20243;-76
2022/05/12 06:49:35;;;;;;;5.63;5.13;;;20.20;99.90;;;;;;5001415;28;20215;-75
2022/05/12 06:52:05;;;;;;;6.20;5.60;;;20.20;99.90;;;;;;4995404;28;20231;-75
2022/05/12 06:54:32;;;;;;;5.20;4.65;;;20.30;99.90;;;;;;4994068;28;20300;-74
2022/05/12 06:56:59;;;;;;;9.00;5.57;;;20.60;99.90;;;;;;4994138;28;20220;-75
2022/05/12 06:59:26;;;;;;;5.38;4.95;;;20.90;99.90;;;;;;4999645;28;20667;-74
2022/05/12 07:01:53;;;;;;;7.07;5.72;;;21.00;99.90;;;;;;4990232;28;20227;-76
2022/05/12 07:04:24;;;;;;;7.88;5.93;;;21.30;99.90;;;;;;4991556;28;20287;-76
2022/05/12 07:06:51;;;;;;;5.50;4.95;;;21.60;99.90;;;;;;4998298;28;20220;-75
2022/05/12 07:09:20;;;;;;;5.85;5.25;;;21.60;99.90;;;;;;4999089;28;20653;-74
2022/05/12 07:11:47;;;;;;;6.10;5.60;;;21.70;99.90;;;;;;4995769;28;20238;-75
2022/05/12 07:14:17;;;;;;;6.20;5.70;;;21.70;99.90;;;;;;4991637;28;20196;-76
2022/05/12 07:16:45;;;;;;;7.85;6.57;;;21.60;99.90;;;;;;4993606;28;20302;-77
2022/05/12 07:19:15;;;;;;;7.15;6.45;;;21.60;99.90;;;;;;4993653;28;20189;-75
2022/05/12 07:27:12;;;;;;;8.88;6.03;;;21.60;99.90;;;;;;4995321;28;20319;-76
2022/05/12 07:29:39;;;;;;;6.88;6.25;;;21.80;99.90;;;;;;4993298;28;20722;-76
2022/05/12 07:32:08;;;;;;;6.93;6.32;;;22.10;99.90;;;;;;4998535;28;20240;-75
2022/05/12 07:34:36;;;;;;;11.50;6.47;;;22.40;99.90;;;;;;5003733;28;20342;-77
2022/05/12 07:37:05;;;;;;;8.38;6.05;;;22.70;99.90;;;;;;5007686;28;20220;-75
2022/05/12 07:39:34;;;;;;;6.60;5.90;;;23.00;99.90;;;;;;5000096;28;20307;-75
2022/05/12 07:42:04;;;;;;;8.27;6.93;;;23.30;99.90;;;;;;5005436;28;20231;-74
2022/05/12 07:44:34;;;;;;;7.32;6.20;;;23.40;99.90;;;;;;4994892;28;20974;-75
2022/05/12 07:47:02;;;;;;;6.68;6.07;;;23.50;99.90;;;;;;4995844;28;20252;-76
2022/05/12 07:49:32;;;;;;;9.23;6.07;;;23.60;99.90;;;;;;5003742;28;20209;-76
2022/05/12 07:52:00;;;;;;;5.80;5.30;;;23.60;99.90;;;;;;5008688;28;20229;-76
2022/05/12 07:54:29;;;;;;;5.93;5.32;;;23.60;99.90;;;;;;4994236;28;20292;-76
2022/05/12 07:56:57;;;;;;;6.38;5.65;;;23.70;99.90;;;;;;5000705;28;20224;-76
2022/05/12 07:59:24;;;;;;;7.95;5.70;;;23.60;99.90;;;;;;4998919;28;20202;-75
2022/05/12 08:01:51;;;;;;;7.10;5.28;;;23.60;99.90;;;;;;4991177;28;20309;-76
2022/05/12 08:04:18;;;;;;;6.32;5.72;;;23.80;99.90;;;;;;4992119;28;20228;-77
2022/05/12 08:06:45;;;;;;;8.20;5.93;;;23.80;99.90;;;;;;4996894;28;20223;-76
2022/05/12 08:09:12;;;;;;;6.18;5.63;;;23.80;99.90;;;;;;5008375;28;20205;-75
2022/05/12 08:11:41;;;;;;;8.85;6.50;;;24.00;99.90;;;;;;5003847;28;20215;-76
2022/05/12 08:14:10;;;;;;;6.20;5.60;;;24.10;99.90;;;;;;5001255;28;20586;-77
2022/05/12 08:16:37;;;;;;;6.50;5.78;;;24.30;99.90;;;;;;4990029;28;20216;-75
2022/05/12 08:19:05;;;;;;;6.43;5.82;;;24.20;99.90;;;;;;4996076;28;20478;-76
2022/05/12 08:21:32;;;;;;;6.28;5.45;;;24.20;99.90;;;;;;4988986;28;20296;-76
2022/05/12 08:23:59;;;;;;;6.13;5.53;;;24.40;99.90;;;;;;4991465;28;20534;-75
2022/05/12 08:26:26;;;;;;;6.25;5.70;;;24.50;99.90;;;;;;4989807;28;20223;-76
2022/05/12 08:28:54;;;;;;;6.72;5.85;;;24.60;99.90;;;;;;4993098;28;21905;-76
2022/05/12 08:31:27;;;;;;;6.93;5.72;;;24.60;99.90;;;;;;4993670;28;20502;-76
2022/05/12 08:33:54;;;;;;;8.82;5.75;;;24.60;99.90;;;;;;4991953;28;20192;-77
2022/05/12 08:36:21;;;;;;;7.90;5.38;;;24.70;99.90;;;;;;4990627;28;20415;-76
2022/05/12 08:38:48;;;;;;;7.32;6.60;;;24.80;99.90;;;;;;4990042;28;20205;-77
2022/05/12 08:41:26;;;;;;;5.95;5.35;;;24.90;99.90;;;;;;4992730;28;20217;-76
2022/05/12 08:44:01;;;;;;;6.40;5.75;;;25.20;99.90;;;;;;4991622;28;20216;-78
2022/05/12 08:46:37;;;;;;;6.45;5.63;;;25.40;99.90;;;;;;4993287;28;20227;-75
2022/05/12 08:49:12;;;;;;;6.47;5.88;;;25.40;99.90;;;;;;4992312;28;20485;-78
2022/05/12 08:51:39;;;;;;;5.90;5.32;;;25.50;99.90;;;;;;4994285;28;20228;-77
2022/05/12 08:54:13;;;;;;;6.10;5.50;;;25.50;99.90;;;;;;4992641;28;20196;-75
2022/05/12 08:56:41;;;;;;;7.57;5.75;;;25.40;99.90;;;;;;4991129;28;20215;-77
2022/05/12 08:59:10;;;;;;;6.90;6.03;;;25.20;99.90;;;;;;4987809;28;20199;-78
2022/05/12 09:01:44;;;;;;;7.88;6.28;;;25.40;99.90;;;;;;4988868;28;20235;-76
2022/05/12 09:04:48;;;;;;;7.13;5.97;;;25.60;99.90;;;;;;4992189;28;20257;-76
2022/05/12 09:07:27;;;;;;;6.53;5.93;;;25.50;99.90;;;;;;4993864;28;20303;-74
2022/05/12 09:10:02;;;;;;;6.32;5.57;;;25.50;99.90;;;;;;4991319;28;20283;-76
2022/05/12 09:12:37;;;;;;;6.57;5.97;;;25.40;99.90;;;;;;4995152;28;20242;-76
2022/05/12 09:15:10;;;;;;;7.22;6.20;;;25.40;99.90;;;;;;4999197;28;20204;-76
2022/05/12 09:17:41;;;;;;;7.63;6.15;;;25.40;99.90;;;;;;4997051;28;20223;-75
2022/05/12 09:20:10;;;;;;;7.15;6.07;;;25.50;99.90;;;;;;4992083;28;20199;-72
2022/05/12 09:22:39;;;;;;;8.05;6.30;;;25.80;99.90;;;;;;4996729;28;20228;-77
2022/05/12 09:25:07;;;;;;;6.38;5.72;;;26.00;99.90;;;;;;4988174;28;20266;-75
2022/05/12 09:27:37;;;;;;;5.82;5.32;;;26.00;99.90;;;;;;4993966;28;20226;-76
2022/05/12 09:30:09;;;;;;;6.57;5.90;;;26.00;99.90;;;;;;4986669;28;20204;-73
2022/05/12 09:32:38;;;;;;;6.93;6.10;;;26.10;99.90;;;;;;4974777;28;20236;-75
2022/05/12 09:35:11;;;;;;;5.93;5.43;;;26.10;99.90;;;;;;4977145;28;20722;-75
2022/05/12 09:37:40;;;;;;;6.57;5.97;;;26.20;99.90;;;;;;4984087;28;20925;-75
2022/05/12 09:40:35;;;;;;;10.20;5.93;;;26.20;99.90;;;;;;4988670;28;20209;-76
2022/05/12 09:43:17;;;;;;;6.10;5.22;;;26.30;99.90;;;;;;4984520;28;20236;-76
2022/05/12 09:46:04;;;;;;;7.25;5.78;;;26.40;99.90;;;;;;4984562;28;20765;-74
2022/05/12 09:48:32;;;;;;;8.00;5.70;;;26.40;99.90;;;;;;4986796;28;20197;-76
2022/05/12 09:51:22;;;;;;;7.40;5.57;;;26.40;99.90;;;;;;4989664;28;20294;-77
2022/05/12 09:53:51;;;;;;;6.68;5.60;;;26.40;99.90;;;;;;4983365;28;20193;-75
2022/05/12 09:56:31;;;;;;;6.53;5.57;;;26.40;99.90;;;;;;4991326;28;20375;-75
2022/05/12 09:59:21;;;;;;;7.03;6.07;;;26.70;99.90;;;;;;4989948;28;20213;-75
2022/05/12 10:01:57;;;;;;;6.05;5.50;;;26.80;99.90;;;;;;4993773;28;20220;-75
2022/05/12 10:10:11;;;;;;;10.50;5.80;;;26.90;99.90;;;;;;4991262;28;20200;-74
2022/05/12 10:12:46;;;;;;;5.93;5.20;;;26.80;99.90;;;;;;5001987;28;20529;-75
2022/05/12 10:15:22;;;;;;;5.97;5.38;;;26.90;99.90;;;;;;5000482;28;20199;-75
2022/05/12 10:17:54;;;;;;;7.20;4.95;;;27.10;99.90;;;;;;4994011;28;20212;-76
2022/05/12 10:20:24;;;;;;;7.65;5.43;;;27.20;99.90;;;;;;5004607;28;20196;-75
2022/05/12 10:22:56;;;;;;;6.63;5.47;;;27.20;99.90;;;;;;5006984;28;20223;-76
2022/05/12 10:25:36;;;;;;;5.15;4.65;;;27.40;99.90;;;;;;5004153;28;20258;-77
2022/05/12 10:28:11;;;;;;;5.55;4.93;;;27.50;99.90;;;;;;4997314;28;20228;-76
2022/05/12 10:30:44;;;;;;;5.72;5.05;;;27.50;99.90;;;;;;4998579;28;20200;-77
2022/05/12 10:33:24;;;;;;;7.32;5.40;;;27.60;99.90;;;;;;4998849;28;20223;-77
2022/05/12 10:36:15;;;;;;;6.55;5.13;;;27.60;99.90;;;;;;4993673;28;20200;-77
2022/05/12 10:38:50;;;;;;;6.53;4.95;;;27.70;99.90;;;;;;5001544;28;20279;-78
2022/05/12 10:41:22;;;;;;;5.32;4.82;;;27.50;99.90;;;;;;4993736;28;20227;-76
2022/05/12 10:44:19;;;;;;;5.20;4.55;;;27.40;99.90;;;;;;4990035;28;20400;-77
2022/05/12 10:46:55;;;;;;;5.57;4.88;;;27.60;99.90;;;;;;4993949;28;20232;-74
2022/05/12 10:49:34;;;;;;;6.70;4.97;;;27.60;99.90;;;;;;4995449;28;20195;-72
2022/05/12 10:52:13;;;;;;;7.57;5.78;;;27.60;99.90;;;;;;4998731;28;20268;-76
2022/05/12 10:54:53;;;;;;;7.45;5.07;;;27.70;99.90;;;;;;4990363;28;20197;-74
2022/05/12 10:57:31;;;;;;;5.97;5.32;;;27.80;99.90;;;;;;4993544;28;20224;-76
2022/05/12 11:00:22;;;;;;;9.48;5.43;;;27.90;99.90;;;;;;4988545;28;20207;-76
2022/05/12 11:02:54;;;;;;;4.72;4.30;;;28.00;99.90;;;;;;4994729;28;20267;-78
2022/05/12 11:05:33;;;;;;;7.85;4.85;;;28.10;99.90;;;;;;4996008;28;20266;-77
2022/05/12 11:08:09;;;;;;;5.05;4.45;;;28.10;99.90;;;;;;4998579;28;20587;-78
2022/05/12 11:10:41;;;;;;;7.72;5.45;;;28.10;99.90;;;;;;5002252;28;20635;-78
2022/05/12 11:13:13;;;;;;;7.45;5.00;;;28.20;99.90;;;;;;4998965;28;20222;-78
2022/05/12 11:15:50;;;;;;;6.25;5.03;;;28.20;99.90;;;;;;4997855;28;20220;-78
2022/05/12 11:18:23;;;;;;;8.63;5.43;;;28.30;99.90;;;;;;4998920;28;20585;-77
2022/05/12 11:21:00;;;;;;;6.22;5.38;;;28.30;99.90;;;;;;4997464;28;20851;-77
2022/05/12 11:23:41;;;;;;;5.82;5.22;;;28.30;99.90;;;;;;4996886;28;20216;-77
2022/05/12 11:26:19;;;;;;;5.28;4.72;;;28.20;99.90;;;;;;4997513;28;20216;-76
2022/05/12 11:31:46;;;;;;;7.07;4.78;;;28.50;99.90;;;;;;4992350;28;20872;-77
2022/05/12 11:34:18;;;;;;;5.60;5.10;;;28.50;99.90;;;;;;4991170;28;20197;-77
2022/05/12 11:36:49;;;;;;;5.07;4.55;;;28.50;99.90;;;;;;4996356;28;20243;-78
2022/05/12 11:39:29;;;;;;;6.55;4.70;;;28.50;99.90;;;;;;5007375;28;20195;-78
2022/05/12 11:42:16;;;;;;;4.90;4.45;;;28.50;99.90;;;;;;5006928;28;20765;-77
2022/05/12 11:44:57;;;;;;;4.90;4.40;;;28.50;99.90;;;;;;4991919;28;20667;-77
2022/05/12 11:48:01;;;;;;;4.93;4.40;;;28.60;99.90;;;;;;4996298;28;20223;-77
2022/05/12 11:51:05;;;;;;;5.80;4.82;;;28.60;99.90;;;;;;4995140;28;20192;-77
2022/05/12 11:53:53;;;;;;;6.47;4.90;;;28.70;99.90;;;;;;4991567;28;20280;-77
2022/05/12 11:56:43;;;;;;;6.63;4.93;;;28.90;99.90;;;;;;4995413;28;20433;-78
2022/05/12 11:59:18;;;;;;;5.63;4.57;;;28.90;99.90;;;;;;4994905;28;20671;-77
2022/05/12 12:01:54;;;;;;;5.07;4.57;;;29.10;99.90;;;;;;5000079;28;20242;-77
2022/05/12 12:04:43;;;;;;;4.78;3.90;;;29.30;99.90;;;;;;4990571;28;20478;-76
2022/05/12 12:07:15;;;;;;;7.18;4.50;;;29.60;99.90;;;;;;4993774;28;20228;-77
2022/05/12 12:09:56;;;;;;;5.75;4.43;;;29.70;99.90;;;;;;4996181;28;20267;-78
2022/05/12 12:13:00;;;;;;;4.38;3.97;;;29.90;99.90;;;;;;4994431;28;20220;-75
2022/05/12 12:16:02;;;;;;;4.97;4.07;;;30.00;99.90;;;;;;4993810;28;20200;-77
2022/05/12 12:18:54;;;;;;;5.32;3.97;;;30.20;99.90;;;;;;4988119;28;20228;-77
2022/05/12 12:21:42;;;;;;;3.72;3.42;;;30.20;98.80;;;;;;4993315;28;20212;-77
2022/05/12 12:24:44;;;;;;;4.20;3.80;;;30.30;99.50;;;;;;4993975;28;20259;-78
2022/05/12 12:27:41;;;;;;;5.45;3.72;;;30.30;99.70;;;;;;4968987;28;20378;-78
2022/05/12 12:30:39;;;;;;;4.70;3.80;;;30.30;99.20;;;;;;4976236;28;20727;-77
2022/05/12 12:33:36;;;;;;;3.97;3.55;;;30.30;97.90;;;;;;4988608;28;20257;-78
2022/05/12 12:36:06;;;;;;;4.85;3.53;;;30.30;98.80;;;;;;4995853;28;20288;-78
2022/05/12 12:39:04;;;;;;;6.85;3.50;;;30.10;95.90;;;;;;4993772;28;20224;-78
2022/05/12 12:41:46;;;;;;;5.15;3.88;;;30.00;94.90;;;;;;4992623;28;20263;-78
2022/05/12 12:44:24;;;;;;;5.82;3.30;;;30.00;96.50;;;;;;5005973;23;20224;-69
2022/05/12 12:47:13;;;;;;;5.60;3.38;;;30.20;95.70;;;;;;4990043;28;20240;-70
2022/05/12 12:49:54;;;;;;;5.15;3.17;;;30.20;94.60;;;;;;4973055;28;21000;-71
2022/05/12 12:52:23;;;;;;;5.93;3.67;;;30.20;94.70;;;;;;4981158;28;20758;-70
2022/05/12 12:57:48;;;;;;;4.55;3.13;;;30.00;92.60;;;;;;4977976;28;20365;-70
2022/05/12 13:00:27;;;;;;;4.43;3.17;;;29.90;93.10;;;;;;4975439;28;20192;-69
2022/05/12 13:03:00;;;;;;;6.35;3.13;;;29.80;90.60;;;;;;4977947;28;20711;-70
2022/05/12 13:05:28;;;;;;;6.38;3.30;;;29.80;91.50;;;;;;4975988;28;20263;-71
2022/05/12 13:07:58;;;;;;;3.38;2.80;;;29.80;90.10;;;;;;4976617;28;20728;-72
2022/05/12 13:10:26;;;;;;;4.65;3.25;;;29.70;88.80;;;;;;4973230;28;20271;-71
2022/05/12 13:12:58;;;;;;;4.03;2.92;;;29.50;89.00;;;;;;4975184;28;20251;-73
2022/05/12 13:15:27;;;;;;;5.30;3.65;;;29.50;90.70;;;;;;4978830;28;20209;-72
2022/05/12 13:17:59;;;;;;;5.28;3.40;;;29.50;90.20;;;;;;4982366;28;20286;-71
2022/05/12 13:20:32;;;;;;;5.50;3.90;;;29.50;91.20;;;;;;4980694;28;20205;-70
2022/05/12 13:23:05;;;;;;;5.35;3.72;;;29.60;91.80;;;;;;4981528;28;20235;-72
2022/05/12 13:25:33;;;;;;;4.38;3.70;;;29.50;91.90;;;;;;4983351;28;20237;-72
2022/05/12 13:28:01;;;;;;;5.50;3.72;;;29.50;91.70;;;;;;4985052;28;20398;-72
2022/05/12 13:30:37;;;;;;;4.38;3.83;;;29.50;91.40;;;;;;4982601;28;20283;-72
2022/05/12 13:33:09;;;;;;;5.97;3.95;;;29.60;91.40;;;;;;4981765;28;20310;-71